Time;durP1;ratioP1;P1;durP2;ratioP2;P2;SDS_P1;SDS_P2;PMS_P1;PMS_P2;Temp;Humidity;BMP_temperature;BMP_pressure;BME280_temperature;BME280_humidity;BME280_pressure;Samples;Min_cycle;Max_cycle;Signal;HPM_P1;HPM_P2
2021/09/10 00:01:14;;;;;;;13.65;12.25;;;19.30;99.90;;;;;;6153823;23;20437;-71
2021/09/10 00:03:39;;;;;;;14.55;11.90;;;19.30;99.90;;;;;;6153824;23;20489;-71
2021/09/10 00:06:05;;;;;;;13.10;11.85;;;19.30;99.90;;;;;;6153712;23;20052;-72
2021/09/10 00:08:31;;;;;;;12.98;11.60;;;19.30;99.90;;;;;;6127347;23;20361;-71
2021/09/10 00:10:56;;;;;;;14.60;13.18;;;19.30;99.90;;;;;;6102840;23;20022;-71
2021/09/10 00:13:22;;;;;;;14.15;12.60;;;19.30;99.90;;;;;;6102886;23;20024;-71
2021/09/10 00:15:47;;;;;;;14.40;13.00;;;19.30;99.90;;;;;;6127014;23;20465;-71
2021/09/10 00:18:13;;;;;;;13.18;11.60;;;19.30;99.90;;;;;;6153685;23;20377;-71
2021/09/10 00:20:38;;;;;;;12.65;11.45;;;19.30;99.90;;;;;;6153282;23;20085;-71
2021/09/10 00:23:04;;;;;;;12.10;10.88;;;19.30;99.90;;;;;;6154144;23;20017;-71
2021/09/10 00:25:29;;;;;;;12.93;11.65;;;19.30;99.90;;;;;;6127075;23;20490;-71
2021/09/10 00:27:55;;;;;;;12.43;11.23;;;19.30;99.90;;;;;;6153632;23;20346;-71
2021/09/10 00:30:20;;;;;;;14.02;11.55;;;19.30;99.90;;;;;;6153598;23;20021;-71
2021/09/10 00:32:46;;;;;;;12.65;11.27;;;19.30;99.90;;;;;;6127362;23;20453;-71
2021/09/10 00:35:12;;;;;;;13.85;11.43;;;19.30;99.90;;;;;;6153297;23;20028;-71
2021/09/10 00:37:37;;;;;;;11.93;10.80;;;19.30;99.90;;;;;;6127020;23;20021;-71
2021/09/10 00:40:05;;;;;;;12.40;11.07;;;19.30;99.90;;;;;;6153466;23;20014;-71
2021/09/10 00:42:30;;;;;;;11.77;10.57;;;19.30;99.90;;;;;;6153518;23;20009;-71
2021/09/10 00:44:57;;;;;;;12.25;10.88;;;19.30;99.90;;;;;;6102846;23;20014;-71
2021/09/10 00:47:23;;;;;;;11.82;10.63;;;19.30;99.90;;;;;;6153447;23;20013;-71
2021/09/10 00:49:49;;;;;;;13.60;10.80;;;19.30;99.90;;;;;;6126968;23;20445;-71
2021/09/10 00:52:16;;;;;;;11.85;10.77;;;19.30;99.90;;;;;;6152952;23;20013;-71
2021/09/10 00:54:42;;;;;;;12.52;11.23;;;19.30;99.90;;;;;;6153348;23;20013;-71
2021/09/10 00:57:07;;;;;;;14.38;12.98;;;19.30;99.90;;;;;;6153281;23;20076;-71
2021/09/10 00:59:33;;;;;;;16.98;15.23;;;19.30;99.90;;;;;;6153222;23;20071;-71
2021/09/10 01:01:59;;;;;;;16.40;14.85;;;19.30;99.90;;;;;;6153126;23;20010;-71
2021/09/10 01:04:26;;;;;;;15.73;14.32;;;19.30;99.90;;;;;;6153310;23;20036;-71
2021/09/10 01:06:53;;;;;;;16.52;14.82;;;19.30;99.90;;;;;;6126598;23;20009;-71
2021/09/10 01:09:20;;;;;;;15.30;13.90;;;19.30;99.90;;;;;;6153306;23;20084;-71
2021/09/10 01:11:47;;;;;;;17.02;15.25;;;19.30;99.90;;;;;;6153115;23;20018;-71
2021/09/10 01:14:15;;;;;;;15.93;14.27;;;19.30;99.90;;;;;;6153552;23;20010;-71
2021/09/10 01:16:42;;;;;;;17.15;15.43;;;19.30;99.90;;;;;;6153007;23;20068;-71
2021/09/10 01:19:08;;;;;;;19.85;16.48;;;19.30;99.90;;;;;;6153162;23;20092;-71
2021/09/10 01:21:33;;;;;;;16.50;15.00;;;19.30;99.90;;;;;;6152846;23;20055;-71
2021/09/10 01:23:59;;;;;;;18.98;17.10;;;19.30;99.90;;;;;;6126906;23;20011;-71
2021/09/10 01:26:25;;;;;;;20.45;18.25;;;19.20;99.90;;;;;;6126528;23;20068;-71
2021/09/10 01:28:50;;;;;;;18.63;16.83;;;19.30;99.90;;;;;;6153238;23;20441;-71
2021/09/10 01:31:17;;;;;;;20.30;18.30;;;19.30;99.90;;;;;;6126578;23;20072;-71
2021/09/10 01:33:42;;;;;;;24.23;21.73;;;19.30;99.90;;;;;;6126592;23;20018;-71
2021/09/10 01:36:09;;;;;;;20.42;18.33;;;19.20;99.90;;;;;;6152950;23;20013;-71
2021/09/10 01:38:34;;;;;;;23.17;20.88;;;19.30;99.90;;;;;;6151007;23;20064;-72
2021/09/10 01:41:00;;;;;;;23.92;21.63;;;19.20;99.90;;;;;;6126295;23;20025;-72
2021/09/10 01:43:26;;;;;;;25.95;23.30;;;19.20;99.90;;;;;;6152981;23;20013;-71
2021/09/10 01:45:51;;;;;;;26.65;23.65;;;19.20;99.90;;;;;;6152695;23;20044;-72
2021/09/10 01:48:17;;;;;;;24.67;22.33;;;19.20;99.90;;;;;;6152788;23;20018;-72
2021/09/10 01:50:42;;;;;;;25.00;22.35;;;19.10;99.90;;;;;;6152905;23;20009;-72
2021/09/10 01:53:08;;;;;;;24.02;21.50;;;19.10;99.90;;;;;;6152298;23;20141;-71
2021/09/10 01:55:35;;;;;;;23.65;21.35;;;19.10;99.90;;;;;;6152906;23;20021;-71
2021/09/10 01:58:01;;;;;;;26.48;23.75;;;19.10;99.90;;;;;;6126095;23;20378;-71
2021/09/10 02:00:27;;;;;;;25.92;23.38;;;19.10;99.90;;;;;;6152707;23;20021;-72
2021/09/10 02:02:53;;;;;;;26.55;23.85;;;19.10;99.90;;;;;;6152355;23;20048;-71
2021/09/10 02:05:18;;;;;;;26.30;23.75;;;19.10;99.90;;;;;;6152850;23;20093;-71
2021/09/10 02:07:44;;;;;;;27.13;24.33;;;19.10;99.90;;;;;;6126642;23;20013;-71
2021/09/10 02:10:11;;;;;;;26.75;23.88;;;19.10;99.90;;;;;;6102072;23;20017;-71
2021/09/10 02:12:38;;;;;;;26.27;23.67;;;19.20;99.90;;;;;;6126342;23;20480;-71
2021/09/10 02:15:05;;;;;;;26.73;23.88;;;19.10;99.90;;;;;;6126568;23;20013;-71
2021/09/10 02:17:31;;;;;;;27.38;24.23;;;19.10;99.90;;;;;;6152989;23;20080;-71
2021/09/10 02:19:56;;;;;;;27.90;24.95;;;19.10;99.90;;;;;;6152740;23;20010;-71
2021/09/10 02:22:22;;;;;;;29.98;25.30;;;19.10;99.90;;;;;;6152587;23;20016;-71
2021/09/10 02:24:47;;;;;;;28.42;25.45;;;19.10;99.90;;;;;;6126200;23;20492;-71
2021/09/10 02:27:13;;;;;;;30.58;27.27;;;19.10;99.90;;;;;;6126054;23;20017;-71
2021/09/10 02:29:38;;;;;;;29.35;26.45;;;19.10;99.90;;;;;;6126148;23;20052;-71
2021/09/10 02:32:04;;;;;;;29.88;26.83;;;19.10;99.90;;;;;;6152138;23;20017;-71
2021/09/10 02:34:30;;;;;;;29.67;26.70;;;19.10;99.90;;;;;;6126046;23;20339;-71
2021/09/10 02:36:55;;;;;;;27.85;25.05;;;19.10;99.90;;;;;;6126093;23;20053;-71
2021/09/10 02:39:21;;;;;;;25.73;22.88;;;19.10;99.90;;;;;;6153648;23;20037;-71
2021/09/10 02:41:46;;;;;;;28.27;25.05;;;19.10;99.90;;;;;;6154625;23;20009;-71
2021/09/10 02:44:12;;;;;;;27.98;24.98;;;19.10;99.90;;;;;;6154167;23;20036;-71
2021/09/10 02:46:38;;;;;;;82.18;31.33;;;19.20;99.90;;;;;;6154198;23;20013;-71
2021/09/10 02:49:04;;;;;;;26.90;24.00;;;19.20;99.90;;;;;;6152635;23;20064;-71
2021/09/10 02:51:30;;;;;;;28.80;25.90;;;19.20;99.90;;;;;;6127947;23;20017;-71
2021/09/10 02:53:56;;;;;;;28.75;25.83;;;19.20;99.90;;;;;;6154912;23;20044;-71
2021/09/10 02:56:21;;;;;;;26.45;23.75;;;19.20;99.90;;;;;;6154631;23;20013;-71
2021/09/10 02:58:47;;;;;;;27.77;24.83;;;19.20;99.90;;;;;;6127825;23;20049;-71
2021/09/10 03:01:12;;;;;;;26.98;23.42;;;19.20;99.90;;;;;;6154152;23;20096;-71
2021/09/10 03:03:38;;;;;;;25.75;22.88;;;19.20;99.90;;;;;;6154240;23;20043;-71
2021/09/10 03:06:04;;;;;;;28.30;25.23;;;19.20;99.90;;;;;;6128140;23;20013;-71
2021/09/10 03:08:29;;;;;;;26.60;23.85;;;19.20;99.90;;;;;;6127841;23;20025;-71
2021/09/10 03:10:55;;;;;;;27.30;24.42;;;19.20;99.90;;;;;;6154402;23;20021;-71
2021/09/10 03:13:20;;;;;;;26.67;23.80;;;19.20;99.90;;;;;;6127832;23;20437;-71
2021/09/10 03:15:46;;;;;;;27.08;24.55;;;19.20;99.90;;;;;;6127958;23;20053;-71
2021/09/10 03:18:12;;;;;;;28.50;25.48;;;19.20;99.90;;;;;;6154112;23;20133;-71
2021/09/10 03:20:37;;;;;;;27.52;24.83;;;19.20;99.90;;;;;;6127940;23;20017;-71
2021/09/10 03:23:04;;;;;;;27.83;24.63;;;19.20;99.90;;;;;;6127554;23;20449;-71
2021/09/10 03:25:30;;;;;;;27.38;24.58;;;19.10;99.90;;;;;;6152356;23;20013;-71
2021/09/10 03:27:55;;;;;;;31.40;28.02;;;19.10;99.90;;;;;;6127477;23;20101;-71
2021/09/10 03:30:21;;;;;;;30.67;27.55;;;19.10;99.90;;;;;;6154108;23;20021;-71
2021/09/10 03:32:47;;;;;;;29.23;26.23;;;19.10;99.90;;;;;;6153772;23;20026;-71
2021/09/10 03:35:13;;;;;;;29.58;26.48;;;19.00;99.90;;;;;;6127712;23;20022;-71
2021/09/10 03:37:38;;;;;;;31.83;28.33;;;19.10;99.90;;;;;;6154394;23;20014;-71
2021/09/10 03:40:06;;;;;;;31.02;27.90;;;19.10;99.90;;;;;;6153998;23;20010;-71
2021/09/10 03:42:31;;;;;;;31.67;28.33;;;19.10;99.90;;;;;;6153662;23;20096;-71
2021/09/10 03:44:57;;;;;;;31.48;28.15;;;19.10;99.90;;;;;;6152098;23;20472;-71
2021/09/10 03:47:23;;;;;;;31.73;28.55;;;19.00;99.90;;;;;;6154062;23;20006;-71
2021/09/10 03:49:48;;;;;;;31.10;27.90;;;19.10;99.90;;;;;;6153564;23;20453;-71
2021/09/10 03:52:14;;;;;;;31.20;27.92;;;19.00;99.90;;;;;;6127289;23;20018;-71
2021/09/10 03:54:39;;;;;;;31.20;27.48;;;19.00;99.90;;;;;;6127354;23;20022;-71
2021/09/10 03:57:06;;;;;;;30.00;27.02;;;19.00;99.90;;;;;;6127962;23;20129;-71
2021/09/10 03:59:31;;;;;;;31.35;28.17;;;19.00;99.90;;;;;;6153463;23;20382;-71
2021/09/10 04:01:57;;;;;;;30.65;27.60;;;18.90;99.90;;;;;;6154352;23;20045;-71
2021/09/10 04:04:23;;;;;;;31.23;27.95;;;18.90;99.90;;;;;;6153719;23;20081;-71
2021/09/10 04:06:48;;;;;;;34.17;30.83;;;18.90;99.90;;;;;;6153876;23;20017;-71
2021/09/10 04:09:14;;;;;;;31.75;28.52;;;18.90;99.90;;;;;;6127223;23;20028;-71
2021/09/10 04:11:40;;;;;;;37.33;33.33;;;18.90;99.90;;;;;;6153792;23;20009;-71
2021/09/10 04:14:05;;;;;;;38.65;34.45;;;18.80;99.90;;;;;;6102855;23;20079;-71
2021/09/10 04:16:33;;;;;;;38.38;34.22;;;18.80;99.90;;;;;;6127263;23;20032;-71
2021/09/10 04:18:59;;;;;;;37.67;33.65;;;18.80;99.90;;;;;;6153248;23;20013;-71
2021/09/10 04:21:24;;;;;;;40.67;36.40;;;18.80;99.90;;;;;;6127258;23;20020;-71
2021/09/10 04:23:50;;;;;;;41.13;36.65;;;18.80;99.90;;;;;;6153605;23;20009;-71
2021/09/10 04:26:16;;;;;;;43.65;36.10;;;18.80;99.90;;;;;;6153709;23;20392;-71
2021/09/10 04:28:46;;;;;;;39.85;35.55;;;18.80;99.90;;;;;;6153581;23;20315;-71
2021/09/10 04:31:12;;;;;;;44.53;37.80;;;18.80;99.90;;;;;;6151771;23;20029;-71
2021/09/10 04:33:37;;;;;;;45.70;37.88;;;18.80;99.90;;;;;;6127479;23;20348;-71
2021/09/10 04:36:03;;;;;;;38.83;34.63;;;18.70;99.90;;;;;;6126916;23;20100;-71
2021/09/10 04:38:29;;;;;;;39.92;33.42;;;18.70;99.90;;;;;;6127078;23;20025;-71
2021/09/10 04:40:54;;;;;;;39.63;35.20;;;18.80;99.90;;;;;;6102463;23;20060;-71
2021/09/10 04:43:20;;;;;;;40.45;35.30;;;18.70;99.90;;;;;;6153526;23;20366;-71
2021/09/10 04:45:45;;;;;;;38.83;34.55;;;18.70;99.90;;;;;;6102523;23;20026;-71
2021/09/10 04:48:11;;;;;;;37.22;32.97;;;18.70;99.90;;;;;;6127012;23;20361;-71
2021/09/10 04:50:36;;;;;;;41.20;36.28;;;18.80;99.90;;;;;;6126866;23;20017;-71
2021/09/10 04:53:02;;;;;;;41.25;36.20;;;18.80;99.90;;;;;;6152957;23;20346;-71
2021/09/10 04:55:27;;;;;;;39.47;34.30;;;18.80;99.90;;;;;;6126761;23;20013;-71
2021/09/10 04:57:53;;;;;;;36.88;33.03;;;18.80;99.90;;;;;;6126856;23;20025;-71
2021/09/10 05:00:18;;;;;;;39.97;34.55;;;18.70;99.90;;;;;;6153203;23;20017;-71
2021/09/10 05:02:44;;;;;;;39.53;35.28;;;18.70;99.90;;;;;;6152876;23;20085;-71
2021/09/10 05:05:10;;;;;;;36.05;32.25;;;18.80;99.90;;;;;;6153158;23;20326;-71
2021/09/10 05:07:36;;;;;;;42.85;35.55;;;18.80;99.90;;;;;;6151307;23;20068;-71
2021/09/10 05:10:02;;;;;;;40.53;35.13;;;18.70;99.90;;;;;;6126691;23;20022;-71
2021/09/10 05:12:27;;;;;;;41.45;35.13;;;18.70;99.90;;;;;;6152726;23;20012;-71
2021/09/10 05:14:53;;;;;;;39.63;34.65;;;18.70;99.90;;;;;;6126662;23;20014;-71
2021/09/10 05:17:20;;;;;;;37.75;31.55;;;18.60;99.90;;;;;;6152489;23;20489;-71
2021/09/10 05:19:46;;;;;;;36.03;32.22;;;18.60;99.90;;;;;;6125948;23;20092;-71
2021/09/10 05:22:12;;;;;;;37.83;32.45;;;18.60;99.90;;;;;;6152756;23;20016;-71
2021/09/10 05:24:39;;;;;;;34.20;30.60;;;18.60;99.90;;;;;;6151951;23;20017;-71
2021/09/10 05:27:05;;;;;;;35.30;31.58;;;18.50;99.90;;;;;;6152310;23;20009;-71
2021/09/10 05:29:30;;;;;;;36.67;32.83;;;18.50;99.90;;;;;;6152389;23;20088;-71
2021/09/10 05:31:56;;;;;;;39.10;33.45;;;18.50;99.90;;;;;;6152466;23;20013;-71
2021/09/10 05:34:21;;;;;;;36.40;32.30;;;18.40;99.90;;;;;;6126871;23;20442;-71
2021/09/10 05:36:47;;;;;;;40.10;34.65;;;18.40;99.90;;;;;;6126391;23;20528;-71
2021/09/10 05:39:13;;;;;;;35.05;31.35;;;18.40;99.90;;;;;;6126379;23;20032;-71
2021/09/10 05:41:38;;;;;;;38.25;33.97;;;18.40;99.90;;;;;;6152527;23;20449;-71
2021/09/10 05:44:04;;;;;;;35.92;32.03;;;18.30;99.90;;;;;;6126520;23;20426;-71
2021/09/10 05:46:29;;;;;;;36.13;32.22;;;18.30;99.90;;;;;;6152769;23;20421;-71
2021/09/10 05:48:55;;;;;;;35.30;31.60;;;18.30;99.90;;;;;;6126367;23;20503;-69
2021/09/10 05:51:21;;;;;;;38.38;34.40;;;18.30;99.90;;;;;;6126039;23;20044;-69
2021/09/10 05:53:46;;;;;;;39.33;33.80;;;18.30;99.90;;;;;;6126430;23;20028;-70
2021/09/10 05:56:12;;;;;;;40.88;34.83;;;18.30;99.90;;;;;;6152451;23;20014;-69
2021/09/10 05:58:37;;;;;;;36.08;32.28;;;18.20;99.90;;;;;;6126176;23;20492;-69
2021/09/10 06:01:03;;;;;;;37.60;32.88;;;18.20;99.90;;;;;;6126182;23;20013;-69
2021/09/10 06:03:28;;;;;;;33.40;30.02;;;18.30;99.90;;;;;;6126337;23;20016;-70
2021/09/10 06:05:54;;;;;;;36.80;32.88;;;18.30;99.90;;;;;;6126007;23;20109;-69
2021/09/10 06:08:19;;;;;;;39.17;34.50;;;18.40;99.90;;;;;;6126688;23;20026;-69
2021/09/10 06:10:46;;;;;;;36.20;32.45;;;18.40;99.90;;;;;;6152675;23;20105;-69
2021/09/10 06:13:12;;;;;;;33.15;29.70;;;18.40;99.90;;;;;;6150694;23;20021;-71
2021/09/10 06:15:38;;;;;;;36.00;32.08;;;18.40;99.90;;;;;;6126165;23;20056;-71
2021/09/10 06:18:03;;;;;;;38.03;33.88;;;18.50;99.90;;;;;;6152558;23;20018;-71
2021/09/10 06:20:29;;;;;;;37.85;33.40;;;18.50;99.90;;;;;;6101929;23;20010;-71
2021/09/10 06:22:54;;;;;;;34.97;31.40;;;18.60;99.90;;;;;;6152514;23;20445;-71
2021/09/10 06:25:20;;;;;;;37.85;32.67;;;18.60;99.90;;;;;;6101984;23;20341;-71
2021/09/10 06:27:46;;;;;;;38.00;33.90;;;18.60;99.90;;;;;;6152402;23;20033;-71
2021/09/10 06:30:11;;;;;;;39.92;34.75;;;18.70;99.90;;;;;;6152212;23;20096;-71
2021/09/10 06:32:37;;;;;;;38.20;34.25;;;18.70;99.90;;;;;;6152545;23;20049;-71
2021/09/10 06:35:04;;;;;;;41.80;37.05;;;18.70;99.90;;;;;;6126088;23;20014;-71
2021/09/10 06:37:29;;;;;;;44.45;37.55;;;18.80;99.90;;;;;;6126351;23;20013;-71
2021/09/10 06:39:55;;;;;;;39.72;35.65;;;18.80;99.90;;;;;;6101873;23;20281;-71
2021/09/10 06:42:21;;;;;;;38.10;34.00;;;18.90;99.90;;;;;;6152459;23;20045;-71
2021/09/10 06:44:50;;;;;;;42.92;38.33;;;19.00;99.90;;;;;;6126105;23;20400;-71
2021/09/10 06:47:16;;;;;;;40.78;36.67;;;19.10;99.90;;;;;;6152151;23;20388;-71
2021/09/10 06:49:42;;;;;;;41.40;37.05;;;19.40;99.90;;;;;;6126092;23;20045;-71
2021/09/10 06:52:07;;;;;;;42.45;37.95;;;19.60;99.90;;;;;;6151844;23;20026;-71
2021/09/10 06:54:33;;;;;;;46.92;41.95;;;20.00;99.90;;;;;;6126016;23;20088;-71
2021/09/10 06:56:58;;;;;;;43.42;38.88;;;20.40;99.90;;;;;;6152339;23;20013;-71
2021/09/10 06:59:24;;;;;;;43.75;39.17;;;20.90;99.90;;;;;;6152207;23;20341;-71
2021/09/10 07:01:49;;;;;;;43.05;38.50;;;21.40;99.90;;;;;;6125747;23;20136;-71
2021/09/10 07:04:15;;;;;;;40.22;36.13;;;21.60;99.90;;;;;;6152490;23;20041;-71
2021/09/10 07:06:41;;;;;;;42.53;38.13;;;21.60;99.90;;;;;;6152382;23;20180;-71
2021/09/10 07:09:07;;;;;;;43.25;38.80;;;21.40;99.90;;;;;;6125872;23;20048;-71
2021/09/10 07:11:33;;;;;;;44.80;40.10;;;21.40;99.90;;;;;;6152410;23;20449;-72
2021/09/10 07:14:03;;;;;;;46.53;41.70;;;21.30;99.90;;;;;;6125873;23;20437;-71
2021/09/10 07:16:29;;;;;;;44.50;39.65;;;21.20;99.90;;;;;;6152171;23;20445;-72
2021/09/10 07:18:55;;;;;;;43.08;38.47;;;21.10;99.90;;;;;;6125713;23;20280;-71
2021/09/10 07:21:20;;;;;;;43.67;39.22;;;21.00;99.90;;;;;;6125852;23;20012;-71
2021/09/10 07:23:46;;;;;;;38.78;34.58;;;21.00;99.90;;;;;;6125764;23;20021;-71
2021/09/10 07:26:13;;;;;;;45.83;39.15;;;21.00;99.90;;;;;;6153241;23;20024;-71
2021/09/10 07:28:38;;;;;;;43.05;38.28;;;21.00;99.90;;;;;;6153696;23;20053;-71
2021/09/10 07:31:04;;;;;;;42.95;38.42;;;20.90;99.90;;;;;;6127571;23;20081;-72
2021/09/10 07:33:31;;;;;;;43.53;38.40;;;20.90;99.90;;;;;;6154020;23;20072;-71
2021/09/10 07:35:56;;;;;;;43.00;38.20;;;20.80;99.90;;;;;;6153778;23;20010;-71
2021/09/10 07:38:22;;;;;;;42.90;38.17;;;20.90;99.90;;;;;;6154169;23;20370;-71
2021/09/10 07:40:47;;;;;;;43.70;39.03;;;21.00;99.90;;;;;;6154101;23;20009;-71
2021/09/10 07:43:13;;;;;;;41.53;36.72;;;21.00;99.90;;;;;;6127296;23;20013;-71
2021/09/10 07:45:39;;;;;;;39.88;35.60;;;21.10;99.90;;;;;;6127685;23;20014;-71
2021/09/10 07:48:05;;;;;;;43.60;39.08;;;21.10;99.90;;;;;;6153852;23;20311;-71
2021/09/10 07:50:30;;;;;;;42.13;37.53;;;21.10;99.90;;;;;;6153920;23;20025;-72
2021/09/10 07:52:56;;;;;;;45.42;36.25;;;21.20;99.90;;;;;;6153425;23;20025;-71
2021/09/10 07:55:22;;;;;;;43.22;38.55;;;21.10;99.90;;;;;;6153611;23;20100;-71
2021/09/10 07:57:47;;;;;;;44.22;38.33;;;21.10;99.90;;;;;;6153767;23;20017;-71
2021/09/10 08:00:16;;;;;;;46.17;37.88;;;21.20;99.90;;;;;;6153842;23;20045;-71
2021/09/10 08:02:42;;;;;;;43.67;38.90;;;21.20;99.90;;;;;;6152268;23;20024;-71
2021/09/10 08:05:08;;;;;;;43.45;38.38;;;21.30;99.90;;;;;;6153853;23;20005;-71
2021/09/10 08:07:34;;;;;;;43.97;38.33;;;21.40;99.90;;;;;;6153689;23;20132;-71
2021/09/10 08:10:00;;;;;;;42.90;37.45;;;21.40;99.90;;;;;;6127295;23;20072;-71
2021/09/10 08:12:26;;;;;;;40.88;36.47;;;21.40;99.90;;;;;;6127286;23;20046;-71
2021/09/10 08:14:51;;;;;;;45.15;37.75;;;21.40;99.90;;;;;;6127137;23;20439;-71
2021/09/10 08:17:17;;;;;;;44.08;38.70;;;21.40;99.90;;;;;;6153743;23;20009;-71
2021/09/10 08:19:42;;;;;;;43.72;38.03;;;21.40;99.90;;;;;;6153493;23;20029;-71
2021/09/10 08:22:08;;;;;;;44.97;39.50;;;21.40;99.90;;;;;;6127153;23;20021;-71
2021/09/10 08:24:33;;;;;;;43.92;39.15;;;21.50;99.90;;;;;;6153602;23;20014;-71
2021/09/10 08:26:59;;;;;;;41.58;35.83;;;21.50;99.90;;;;;;6153258;23;20020;-71
2021/09/10 08:29:25;;;;;;;44.28;37.50;;;21.50;99.90;;;;;;6153527;23;20043;-71
2021/09/10 08:31:50;;;;;;;43.05;36.63;;;21.60;99.90;;;;;;6103209;23;20484;-71
2021/09/10 08:34:16;;;;;;;42.25;37.33;;;21.70;99.90;;;;;;6153501;23;20429;-71
2021/09/10 08:36:41;;;;;;;41.00;34.90;;;21.70;99.90;;;;;;6127058;23;20044;-71
2021/09/10 08:39:07;;;;;;;41.28;36.70;;;21.70;99.90;;;;;;6153267;23;20025;-71
2021/09/10 08:41:34;;;;;;;47.40;38.05;;;21.80;99.90;;;;;;6151657;23;20022;-71
2021/09/10 08:44:05;;;;;;;43.97;37.10;;;21.80;99.90;;;;;;6153245;23;20017;-71
2021/09/10 08:46:34;;;;;;;40.90;34.03;;;21.80;99.90;;;;;;6153601;23;20013;-71
2021/09/10 08:49:00;;;;;;;43.20;37.53;;;21.90;99.90;;;;;;6126745;23;20009;-71
2021/09/10 08:51:26;;;;;;;40.08;35.10;;;21.90;99.90;;;;;;6153163;23;20022;-71
2021/09/10 08:53:52;;;;;;;41.47;36.90;;;21.90;99.90;;;;;;6126819;23;20341;-71
2021/09/10 08:56:17;;;;;;;38.67;34.33;;;21.90;99.90;;;;;;6153313;23;20088;-72
2021/09/10 08:58:43;;;;;;;39.20;34.38;;;22.00;99.90;;;;;;6153143;23;20085;-72
2021/09/10 09:01:09;;;;;;;40.58;35.22;;;22.10;99.90;;;;;;6126869;23;20107;-72
2021/09/10 09:03:35;;;;;;;42.72;36.42;;;22.10;99.90;;;;;;6153108;23;20043;-72
2021/09/10 09:06:01;;;;;;;36.55;31.63;;;22.20;99.90;;;;;;6126844;23;20017;-71
2021/09/10 09:08:26;;;;;;;41.60;36.50;;;22.20;99.90;;;;;;6153218;23;20047;-71
2021/09/10 09:11:01;;;;;;;42.97;37.05;;;22.30;99.90;;;;;;6153136;23;20068;-71
2021/09/10 09:13:47;;;;;;;40.42;33.50;;;22.30;99.90;;;;;;6153253;23;20133;-71
2021/09/10 09:16:26;;;;;;;43.15;35.92;;;22.40;99.90;;;;;;6126265;23;20049;-71
2021/09/10 09:18:56;;;;;;;39.75;34.03;;;22.30;99.90;;;;;;6126794;23;20028;-72
2021/09/10 09:21:28;;;;;;;35.92;31.98;;;22.40;99.90;;;;;;6153158;23;20017;-72
2021/09/10 09:24:14;;;;;;;37.40;33.30;;;22.60;99.90;;;;;;6152947;23;20010;-72
2021/09/10 09:26:41;;;;;;;35.35;31.50;;;22.70;99.90;;;;;;6126982;23;20013;-72
2021/09/10 09:29:13;;;;;;;37.25;33.17;;;22.90;99.90;;;;;;6152543;23;20437;-72
2021/09/10 09:31:41;;;;;;;36.72;32.30;;;22.90;99.90;;;;;;6126966;23;20021;-72
2021/09/10 09:34:10;;;;;;;37.75;33.83;;;23.00;99.90;;;;;;6126768;23;20021;-72
2021/09/10 09:36:53;;;;;;;36.00;32.20;;;23.10;99.90;;;;;;6126730;23;20017;-71
2021/09/10 09:39:19;;;;;;;35.20;31.52;;;23.20;99.90;;;;;;6152734;23;20045;-71
2021/09/10 09:41:44;;;;;;;34.17;30.52;;;23.30;99.90;;;;;;6126425;23;20426;-72
2021/09/10 09:44:14;;;;;;;38.28;31.00;;;23.30;99.90;;;;;;6126388;23;20430;-72
2021/09/10 09:46:41;;;;;;;36.17;31.48;;;23.40;99.90;;;;;;6126401;23;20450;-72
2021/09/10 09:49:10;;;;;;;37.38;33.45;;;23.40;99.90;;;;;;6126059;23;20394;-71
2021/09/10 09:51:37;;;;;;;35.15;31.42;;;23.50;99.90;;;;;;6152230;23;20025;-71
2021/09/10 09:54:02;;;;;;;33.75;30.10;;;23.50;99.90;;;;;;6126329;23;20342;-71
2021/09/10 09:56:28;;;;;;;38.38;33.97;;;23.60;99.90;;;;;;6152728;23;20113;-71
2021/09/10 09:58:55;;;;;;;34.63;30.98;;;23.50;99.90;;;;;;6152761;23;20016;-71
2021/09/10 10:01:21;;;;;;;37.05;33.10;;;23.50;99.90;;;;;;6126139;23;20017;-71
2021/09/10 10:03:47;;;;;;;38.30;32.67;;;23.50;99.90;;;;;;6152518;23;20017;-71
2021/09/10 10:06:20;;;;;;;35.65;31.92;;;23.50;99.90;;;;;;6152596;23;20014;-71
2021/09/10 10:08:59;;;;;;;37.67;33.63;;;23.40;99.90;;;;;;6126236;23;20025;-71
2021/09/10 10:11:39;;;;;;;35.45;31.80;;;23.40;99.90;;;;;;6152697;23;20013;-71
2021/09/10 10:14:06;;;;;;;35.30;31.67;;;23.40;99.90;;;;;;6152505;23;20028;-71
2021/09/10 10:16:51;;;;;;;38.28;34.28;;;23.50;99.90;;;;;;6152649;23;20329;-71
2021/09/10 10:19:20;;;;;;;34.53;31.23;;;23.60;99.90;;;;;;6152624;23;20020;-71
2021/09/10 10:22:02;;;;;;;35.72;31.90;;;23.60;99.90;;;;;;6152536;23;20096;-71
2021/09/10 10:24:51;;;;;;;36.03;32.42;;;23.70;99.90;;;;;;6152717;23;20033;-72
2021/09/10 10:27:24;;;;;;;34.08;30.73;;;23.70;99.90;;;;;;6126188;23;20013;-72
2021/09/10 10:29:50;;;;;;;34.72;31.30;;;23.70;99.90;;;;;;6152641;23;20024;-72
2021/09/10 10:32:30;;;;;;;32.92;29.60;;;23.70;99.90;;;;;;6152506;23;20337;-72
2021/09/10 10:35:14;;;;;;;34.83;31.45;;;23.80;99.90;;;;;;6126140;23;20021;-72
2021/09/10 10:37:45;;;;;;;34.20;30.90;;;23.80;99.90;;;;;;6152581;23;20117;-72
2021/09/10 10:40:40;;;;;;;33.92;30.52;;;23.80;99.90;;;;;;6152161;23;20024;-72
2021/09/10 10:43:26;;;;;;;31.20;28.08;;;23.80;99.90;;;;;;6101628;23;20017;-72
2021/09/10 10:46:04;;;;;;;33.10;29.92;;;23.90;99.90;;;;;;6126143;23;20432;-72
2021/09/10 10:48:29;;;;;;;30.65;27.67;;;23.80;99.90;;;;;;6125966;23;20018;-71
2021/09/10 10:50:55;;;;;;;32.20;28.83;;;23.90;99.90;;;;;;6152363;23;20017;-71
2021/09/10 10:53:21;;;;;;;31.90;28.90;;;24.00;99.90;;;;;;6151977;23;20025;-72
2021/09/10 10:55:47;;;;;;;31.88;28.88;;;24.00;99.90;;;;;;6150564;23;20017;-72
2021/09/10 10:58:30;;;;;;;28.65;25.95;;;24.00;99.90;;;;;;6125961;23;20043;-72
2021/09/10 11:01:01;;;;;;;30.13;27.50;;;24.10;99.90;;;;;;6127093;23;20022;-72
2021/09/10 11:03:26;;;;;;;30.17;27.50;;;24.10;99.90;;;;;;6154496;23;20013;-72
2021/09/10 11:05:55;;;;;;;28.75;26.05;;;24.10;99.90;;;;;;6154246;23;20068;-72
2021/09/10 11:08:33;;;;;;;29.25;26.45;;;24.10;99.90;;;;;;6184095;23;20029;-74
2021/09/10 11:11:00;;;;;;;27.88;25.33;;;24.00;99.90;;;;;;6157372;23;20044;-74
2021/09/10 11:13:27;;;;;;;27.23;24.85;;;24.00;99.90;;;;;;6157456;23;20558;-75
2021/09/10 11:15:53;;;;;;;25.80;23.50;;;24.00;99.90;;;;;;6157671;23;20376;-75
2021/09/10 11:18:18;;;;;;;23.67;21.60;;;24.10;99.90;;;;;;6157140;23;20015;-75
2021/09/10 11:20:50;;;;;;;24.42;22.40;;;24.30;99.90;;;;;;6132654;23;20021;-75
2021/09/10 11:23:24;;;;;;;24.35;22.00;;;24.50;99.90;;;;;;6132639;23;20009;-74
2021/09/10 11:25:57;;;;;;;23.30;21.13;;;24.60;99.90;;;;;;6157382;23;20021;-74
2021/09/10 11:28:28;;;;;;;23.65;21.55;;;24.60;99.90;;;;;;6157350;23;20502;-75
2021/09/10 11:30:53;;;;;;;24.80;22.55;;;24.60;99.90;;;;;;6157339;23;20013;-75
2021/09/10 11:33:20;;;;;;;24.20;21.95;;;24.50;99.90;;;;;;6132600;23;20021;-75
2021/09/10 11:35:46;;;;;;;27.13;24.67;;;24.50;99.90;;;;;;6157124;23;20017;-75
2021/09/10 11:38:23;;;;;;;28.25;25.75;;;24.50;99.90;;;;;;6156784;23;20021;-75
2021/09/10 11:40:58;;;;;;;27.17;24.77;;;24.70;99.90;;;;;;6157052;23;20021;-75
2021/09/10 11:43:26;;;;;;;24.77;22.58;;;24.70;99.90;;;;;;6156720;23;20097;-75
2021/09/10 11:45:55;;;;;;;26.35;24.05;;;24.80;99.90;;;;;;6157056;23;20025;-75
2021/09/10 11:48:32;;;;;;;25.23;22.98;;;25.00;99.90;;;;;;6156936;23;20457;-74
2021/09/10 11:51:02;;;;;;;24.10;22.00;;;25.00;99.90;;;;;;6156751;23;20013;-75
2021/09/10 11:53:47;;;;;;;25.60;23.10;;;25.10;99.90;;;;;;6156869;23;20024;-75
2021/09/10 11:56:19;;;;;;;23.58;21.52;;;25.10;99.90;;;;;;6156640;23;20445;-75
2021/09/10 11:58:47;;;;;;;23.55;21.52;;;25.10;99.90;;;;;;6156571;23;20075;-74
2021/09/10 12:01:25;;;;;;;28.23;25.67;;;25.10;99.90;;;;;;6132968;23;20020;-75
2021/09/10 12:04:03;;;;;;;26.50;24.10;;;25.20;99.90;;;;;;6156842;23;20024;-75
2021/09/10 12:06:31;;;;;;;27.65;25.17;;;25.30;99.90;;;;;;6152102;23;20461;-74
2021/09/10 12:09:21;;;;;;;28.23;25.58;;;25.40;99.90;;;;;;6127187;23;20449;-75
2021/09/10 12:12:22;;;;;;;28.10;25.60;;;25.50;99.90;;;;;;6126975;23;20437;-75
2021/09/10 12:14:53;;;;;;;23.45;21.33;;;25.60;99.90;;;;;;6127648;23;20045;-75
2021/09/10 12:17:25;;;;;;;25.17;22.35;;;25.70;99.90;;;;;;6127100;23;20460;-75
2021/09/10 12:19:56;;;;;;;25.08;22.95;;;25.80;99.90;;;;;;6127037;23;20079;-75
2021/09/10 12:22:36;;;;;;;24.88;22.65;;;25.80;99.90;;;;;;6102654;23;20321;-75
2021/09/10 12:25:26;;;;;;;25.77;23.35;;;25.90;99.90;;;;;;6127157;23;20092;-75
2021/09/10 12:27:53;;;;;;;24.33;22.00;;;25.90;99.90;;;;;;6151510;23;20013;-75
2021/09/10 12:30:21;;;;;;;21.58;19.77;;;26.00;99.90;;;;;;6151587;23;20040;-75